sensor_id;sensor_type;location;lat;lon;timestamp;temperature;humidity
46458;DHT22;32155;54.076;12.092;2023-09-19T00:01:43;19.10;99.90
46458;DHT22;32155;54.076;12.092;2023-09-19T00:04:28;19.20;99.90
46458;DHT22;32155;54.076;12.092;2023-09-19T00:07:12;19.10;99.90
46458;DHT22;32155;54.076;12.092;2023-09-19T00:09:39;19.20;99.90
46458;DHT22;32155;54.076;12.092;2023-09-19T00:12:05;19.20;99.90
46458;DHT22;32155;54.076;12.092;2023-09-19T00:14:34;19.10;99.90
46458;DHT22;32155;54.076;12.092;2023-09-19T00:17:26;19.20;99.90
46458;DHT22;32155;54.076;12.092;2023-09-19T00:19:57;19.20;99.90
46458;DHT22;32155;54.076;12.092;2023-09-19T00:22:23;19.20;99.90
46458;DHT22;32155;54.076;12.092;2023-09-19T00:25:05;19.20;99.90
46458;DHT22;32155;54.076;12.092;2023-09-19T00:27:31;19.20;99.90
46458;DHT22;32155;54.076;12.092;2023-09-19T00:30:01;19.20;99.90
46458;DHT22;32155;54.076;12.092;2023-09-19T00:32:34;19.30;99.90
46458;DHT22;32155;54.076;12.092;2023-09-19T00:35:03;19.20;99.90
46458;DHT22;32155;54.076;12.092;2023-09-19T00:37:29;19.20;99.90
46458;DHT22;32155;54.076;12.092;2023-09-19T00:40:06;19.20;99.90
46458;DHT22;32155;54.076;12.092;2023-09-19T00:42:40;19.30;99.90
46458;DHT22;32155;54.076;12.092;2023-09-19T00:45:09;19.20;99.90
46458;DHT22;32155;54.076;12.092;2023-09-19T00:47:40;19.20;99.90
46458;DHT22;32155;54.076;12.092;2023-09-19T00:50:11;19.20;99.90
46458;DHT22;32155;54.076;12.092;2023-09-19T00:52:53;19.20;99.90
46458;DHT22;32155;54.076;12.092;2023-09-19T01:04:30;19.00;99.90
46458;DHT22;32155;54.076;12.092;2023-09-19T01:07:29;18.90;99.90
46458;DHT22;32155;54.076;12.092;2023-09-19T01:10:21;18.80;99.90
46458;DHT22;32155;54.076;12.092;2023-09-19T01:12:52;18.80;99.90
46458;DHT22;32155;54.076;12.092;2023-09-19T01:17:53;18.60;99.90
46458;DHT22;32155;54.076;12.092;2023-09-19T01:30:14;18.40;99.90
46458;DHT22;32155;54.076;12.092;2023-09-19T01:33:42;18.50;99.90
46458;DHT22;32155;54.076;12.092;2023-09-19T01:36:03;18.40;99.90
46458;DHT22;32155;54.076;12.092;2023-09-19T01:38:31;18.40;99.90
46458;DHT22;32155;54.076;12.092;2023-09-19T01:41:00;18.40;99.90
46458;DHT22;32155;54.076;12.092;2023-09-19T01:43:54;18.30;99.90
46458;DHT22;32155;54.076;12.092;2023-09-19T01:46:26;18.20;99.90
46458;DHT22;32155;54.076;12.092;2023-09-19T01:49:14;18.20;99.90
46458;DHT22;32155;54.076;12.092;2023-09-19T01:52:16;18.20;99.90
46458;DHT22;32155;54.076;12.092;2023-09-19T01:58:29;18.10;99.90
46458;DHT22;32155;54.076;12.092;2023-09-19T02:01:34;18.00;99.90
46458;DHT22;32155;54.076;12.092;2023-09-19T02:04:30;17.90;99.90
46458;DHT22;32155;54.076;12.092;2023-09-19T02:07:09;17.90;99.90
46458;DHT22;32155;54.076;12.092;2023-09-19T02:09:54;17.90;99.90
46458;DHT22;32155;54.076;12.092;2023-09-19T02:12:22;17.90;99.90
46458;DHT22;32155;54.076;12.092;2023-09-19T02:15:10;17.90;99.90
46458;DHT22;32155;54.076;12.092;2023-09-19T02:18:03;17.90;99.90
46458;DHT22;32155;54.076;12.092;2023-09-19T02:20:59;17.90;99.90
46458;DHT22;32155;54.076;12.092;2023-09-19T02:23:29;17.90;99.90
46458;DHT22;32155;54.076;12.092;2023-09-19T02:25:55;17.90;99.90
46458;DHT22;32155;54.076;12.092;2023-09-19T02:28:28;17.90;99.90
46458;DHT22;32155;54.076;12.092;2023-09-19T02:30:58;17.90;99.90
46458;DHT22;32155;54.076;12.092;2023-09-19T02:33:30;17.80;99.90
46458;DHT22;32155;54.076;12.092;2023-09-19T02:36:03;17.70;99.90
46458;DHT22;32155;54.076;12.092;2023-09-19T02:38:34;17.70;99.90
46458;DHT22;32155;54.076;12.092;2023-09-19T02:41:11;17.60;99.90
46458;DHT22;32155;54.076;12.092;2023-09-19T02:43:52;17.60;99.90
46458;DHT22;32155;54.076;12.092;2023-09-19T02:46:21;17.60;99.90
46458;DHT22;32155;54.076;12.092;2023-09-19T02:48:50;17.70;99.90
46458;DHT22;32155;54.076;12.092;2023-09-19T02:51:23;17.60;99.90
46458;DHT22;32155;54.076;12.092;2023-09-19T02:53:55;17.60;99.90
46458;DHT22;32155;54.076;12.092;2023-09-19T02:56:21;17.60;99.90
46458;DHT22;32155;54.076;12.092;2023-09-19T02:58:50;17.50;99.90
46458;DHT22;32155;54.076;12.092;2023-09-19T03:01:46;17.50;99.90
46458;DHT22;32155;54.076;12.092;2023-09-19T03:04:25;17.40;99.90
46458;DHT22;32155;54.076;12.092;2023-09-19T03:07:01;17.30;99.90
46458;DHT22;32155;54.076;12.092;2023-09-19T03:09:31;17.20;99.90
46458;DHT22;32155;54.076;12.092;2023-09-19T03:12:05;17.20;99.90
46458;DHT22;32155;54.076;12.092;2023-09-19T03:20:51;17.00;99.90
46458;DHT22;32155;54.076;12.092;2023-09-19T03:23:29;17.00;99.90
46458;DHT22;32155;54.076;12.092;2023-09-19T03:26:10;16.90;99.90
46458;DHT22;32155;54.076;12.092;2023-09-19T03:28:38;16.90;99.90
46458;DHT22;32155;54.076;12.092;2023-09-19T03:31:20;16.90;99.90
46458;DHT22;32155;54.076;12.092;2023-09-19T03:34:09;16.90;99.90
46458;DHT22;32155;54.076;12.092;2023-09-19T03:36:49;16.80;99.90
46458;DHT22;32155;54.076;12.092;2023-09-19T03:39:17;16.80;99.90
46458;DHT22;32155;54.076;12.092;2023-09-19T03:42:20;16.80;99.90
46458;DHT22;32155;54.076;12.092;2023-09-19T03:45:13;16.80;99.90
46458;DHT22;32155;54.076;12.092;2023-09-19T03:47:53;16.80;99.90
46458;DHT22;32155;54.076;12.092;2023-09-19T03:50:38;16.70;99.90
46458;DHT22;32155;54.076;12.092;2023-09-19T03:53:04;16.70;99.90
46458;DHT22;32155;54.076;12.092;2023-09-19T03:55:38;16.80;99.90
46458;DHT22;32155;54.076;12.092;2023-09-19T03:58:22;16.80;99.90
46458;DHT22;32155;54.076;12.092;2023-09-19T04:01:21;16.70;99.90
46458;DHT22;32155;54.076;12.092;2023-09-19T04:04:22;16.70;99.90
46458;DHT22;32155;54.076;12.092;2023-09-19T04:07:04;16.70;99.90
46458;DHT22;32155;54.076;12.092;2023-09-19T04:09:50;16.60;99.90
46458;DHT22;32155;54.076;12.092;2023-09-19T04:12:19;16.60;99.90
46458;DHT22;32155;54.076;12.092;2023-09-19T04:17:59;16.50;99.90
46458;DHT22;32155;54.076;12.092;2023-09-19T04:20:28;16.50;99.90
46458;DHT22;32155;54.076;12.092;2023-09-19T04:22:54;16.40;99.90
46458;DHT22;32155;54.076;12.092;2023-09-19T04:31:49;16.40;99.90
46458;DHT22;32155;54.076;12.092;2023-09-19T04:34:17;16.30;99.90
46458;DHT22;32155;54.076;12.092;2023-09-19T04:36:43;16.30;99.90
46458;DHT22;32155;54.076;12.092;2023-09-19T04:39:11;16.30;99.90
46458;DHT22;32155;54.076;12.092;2023-09-19T04:41:39;16.20;99.90
46458;DHT22;32155;54.076;12.092;2023-09-19T04:44:06;16.20;99.90
46458;DHT22;32155;54.076;12.092;2023-09-19T04:49:51;16.10;99.90
46458;DHT22;32155;54.076;12.092;2023-09-19T04:52:22;16.20;99.90
46458;DHT22;32155;54.076;12.092;2023-09-19T04:54:48;16.20;99.90
46458;DHT22;32155;54.076;12.092;2023-09-19T04:57:14;16.20;99.90
46458;DHT22;32155;54.076;12.092;2023-09-19T04:59:40;16.10;99.90
46458;DHT22;32155;54.076;12.092;2023-09-19T05:02:06;16.10;99.90
46458;DHT22;32155;54.076;12.092;2023-09-19T05:04:33;16.10;99.90
46458;DHT22;32155;54.076;12.092;2023-09-19T05:06:59;16.10;99.90
46458;DHT22;32155;54.076;12.092;2023-09-19T05:09:26;16.10;99.90
46458;DHT22;32155;54.076;12.092;2023-09-19T05:11:52;16.10;99.90
46458;DHT22;32155;54.076;12.092;2023-09-19T05:14:18;16.10;99.90
46458;DHT22;32155;54.076;12.092;2023-09-19T05:16:45;16.20;99.90
46458;DHT22;32155;54.076;12.092;2023-09-19T05:19:10;16.20;99.90
46458;DHT22;32155;54.076;12.092;2023-09-19T05:21:37;16.30;99.90
46458;DHT22;32155;54.076;12.092;2023-09-19T05:24:07;16.30;99.90
46458;DHT22;32155;54.076;12.092;2023-09-19T05:26:33;16.20;99.90
46458;DHT22;32155;54.076;12.092;2023-09-19T05:28:58;16.30;99.90
46458;DHT22;32155;54.076;12.092;2023-09-19T05:31:34;16.40;99.90
46458;DHT22;32155;54.076;12.092;2023-09-19T05:34:11;16.50;99.90
46458;DHT22;32155;54.076;12.092;2023-09-19T05:36:40;16.50;99.90
46458;DHT22;32155;54.076;12.092;2023-09-19T05:39:13;16.60;99.90
46458;DHT22;32155;54.076;12.092;2023-09-19T05:41:39;16.50;99.90
46458;DHT22;32155;54.076;12.092;2023-09-19T05:44:05;16.60;99.90
46458;DHT22;32155;54.076;12.092;2023-09-19T05:46:32;16.70;99.90
46458;DHT22;32155;54.076;12.092;2023-09-19T05:48:57;16.70;99.90
46458;DHT22;32155;54.076;12.092;2023-09-19T05:51:23;16.90;99.90
46458;DHT22;32155;54.076;12.092;2023-09-19T05:53:49;17.30;99.90
46458;DHT22;32155;54.076;12.092;2023-09-19T05:56:15;17.80;99.90
46458;DHT22;32155;54.076;12.092;2023-09-19T05:58:42;18.20;99.90
46458;DHT22;32155;54.076;12.092;2023-09-19T06:01:09;18.50;99.90
46458;DHT22;32155;54.076;12.092;2023-09-19T06:03:35;18.70;99.90
46458;DHT22;32155;54.076;12.092;2023-09-19T06:06:01;19.00;99.90
46458;DHT22;32155;54.076;12.092;2023-09-19T06:08:33;19.10;99.90
46458;DHT22;32155;54.076;12.092;2023-09-19T06:14:32;18.70;99.90
46458;DHT22;32155;54.076;12.092;2023-09-19T06:17:03;18.60;99.90
46458;DHT22;32155;54.076;12.092;2023-09-19T06:19:51;19.20;99.90
46458;DHT22;32155;54.076;12.092;2023-09-19T06:22:38;19.10;99.90
46458;DHT22;32155;54.076;12.092;2023-09-19T06:28:19;18.60;99.90
46458;DHT22;32155;54.076;12.092;2023-09-19T06:30:54;18.80;99.90
46458;DHT22;32155;54.076;12.092;2023-09-19T06:33:53;18.50;99.90
46458;DHT22;32155;54.076;12.092;2023-09-19T06:39:25;18.80;99.90
46458;DHT22;32155;54.076;12.092;2023-09-19T06:41:53;19.20;99.90
46458;DHT22;32155;54.076;12.092;2023-09-19T06:53:51;19.80;99.90
46458;DHT22;32155;54.076;12.092;2023-09-19T07:05:49;22.10;99.90
46458;DHT22;32155;54.076;12.092;2023-09-19T07:11:32;23.50;99.90
46458;DHT22;32155;54.076;12.092;2023-09-19T07:20:56;25.50;99.90
46458;DHT22;32155;54.076;12.092;2023-09-19T07:27:01;25.10;99.90
46458;DHT22;32155;54.076;12.092;2023-09-19T07:29:30;24.10;99.90
46458;DHT22;32155;54.076;12.092;2023-09-19T07:35:00;24.30;99.90
46458;DHT22;32155;54.076;12.092;2023-09-19T07:37:35;24.50;99.90
46458;DHT22;32155;54.076;12.092;2023-09-19T07:43:18;22.60;99.90
46458;DHT22;32155;54.076;12.092;2023-09-19T07:45:47;22.70;99.90
46458;DHT22;32155;54.076;12.092;2023-09-19T07:48:15;23.00;99.90
46458;DHT22;32155;54.076;12.092;2023-09-19T07:50:50;22.90;99.90
46458;DHT22;32155;54.076;12.092;2023-09-19T07:57:07;24.40;99.90
46458;DHT22;32155;54.076;12.092;2023-09-19T07:59:35;23.70;99.90
46458;DHT22;32155;54.076;12.092;2023-09-19T08:11:49;24.90;99.90
46458;DHT22;32155;54.076;12.092;2023-09-19T08:14:42;24.20;99.90
46458;DHT22;32155;54.076;12.092;2023-09-19T08:20:24;21.30;99.90
46458;DHT22;32155;54.076;12.092;2023-09-19T08:22:59;21.00;99.90
46458;DHT22;32155;54.076;12.092;2023-09-19T08:25:34;22.00;99.90
46458;DHT22;32155;54.076;12.092;2023-09-19T08:28:42;21.50;99.90
46458;DHT22;32155;54.076;12.092;2023-09-19T08:31:22;22.60;99.90
46458;DHT22;32155;54.076;12.092;2023-09-19T08:33:53;22.70;99.90
46458;DHT22;32155;54.076;12.092;2023-09-19T08:36:25;23.10;99.90
46458;DHT22;32155;54.076;12.092;2023-09-19T08:39:15;22.50;99.90
46458;DHT22;32155;54.076;12.092;2023-09-19T08:48:23;23.70;99.90
46458;DHT22;32155;54.076;12.092;2023-09-19T09:01:42;20.70;99.90
46458;DHT22;32155;54.076;12.092;2023-09-19T09:04:44;20.60;99.90
46458;DHT22;32155;54.076;12.092;2023-09-19T09:07:24;20.60;99.90
46458;DHT22;32155;54.076;12.092;2023-09-19T09:10:46;20.50;99.90
46458;DHT22;32155;54.076;12.092;2023-09-19T09:16:38;20.20;99.90
46458;DHT22;32155;54.076;12.092;2023-09-19T09:19:43;20.20;99.90
46458;DHT22;32155;54.076;12.092;2023-09-19T09:25:50;20.90;99.90
46458;DHT22;32155;54.076;12.092;2023-09-19T09:28:48;21.50;99.90
46458;DHT22;32155;54.076;12.092;2023-09-19T09:31:55;21.30;99.90
46458;DHT22;32155;54.076;12.092;2023-09-19T09:34:55;21.20;99.90
46458;DHT22;32155;54.076;12.092;2023-09-19T09:44:24;20.80;99.90
46458;DHT22;32155;54.076;12.092;2023-09-19T09:46:52;20.70;99.90
46458;DHT22;32155;54.076;12.092;2023-09-19T09:52:31;20.40;99.90
46458;DHT22;32155;54.076;12.092;2023-09-19T09:58:25;19.90;99.90
46458;DHT22;32155;54.076;12.092;2023-09-19T10:03:41;19.40;99.90
46458;DHT22;32155;54.076;12.092;2023-09-19T10:13:08;19.00;99.90
46458;DHT22;32155;54.076;12.092;2023-09-19T10:18:10;18.80;99.90
46458;DHT22;32155;54.076;12.092;2023-09-19T10:21:44;18.60;99.90
46458;DHT22;32155;54.076;12.092;2023-09-19T10:24:10;19.00;99.90
46458;DHT22;32155;54.076;12.092;2023-09-19T10:26:51;20.10;99.90
46458;DHT22;32155;54.076;12.092;2023-09-19T10:29:25;21.60;99.90
46458;DHT22;32155;54.076;12.092;2023-09-19T10:38:14;22.60;99.90
46458;DHT22;32155;54.076;12.092;2023-09-19T10:46:55;21.30;99.90
46458;DHT22;32155;54.076;12.092;2023-09-19T10:52:59;22.30;99.90
46458;DHT22;32155;54.076;12.092;2023-09-19T10:55:47;22.00;99.90
46458;DHT22;32155;54.076;12.092;2023-09-19T10:58:29;22.50;99.90
46458;DHT22;32155;54.076;12.092;2023-09-19T11:01:00;23.10;99.90
46458;DHT22;32155;54.076;12.092;2023-09-19T11:11:12;23.00;99.90
46458;DHT22;32155;54.076;12.092;2023-09-19T11:16:07;22.20;99.90
46458;DHT22;32155;54.076;12.092;2023-09-19T11:21:38;23.60;99.90
46458;DHT22;32155;54.076;12.092;2023-09-19T11:30:39;23.30;99.90
46458;DHT22;32155;54.076;12.092;2023-09-19T11:36:28;25.10;99.90
46458;DHT22;32155;54.076;12.092;2023-09-19T11:39:25;25.20;99.90
46458;DHT22;32155;54.076;12.092;2023-09-19T11:57:40;25.10;99.90
46458;DHT22;32155;54.076;12.092;2023-09-19T12:03:13;25.00;99.90
46458;DHT22;32155;54.076;12.092;2023-09-19T12:12:01;26.00;99.90
46458;DHT22;32155;54.076;12.092;2023-09-19T12:14:47;25.00;99.90
46458;DHT22;32155;54.076;12.092;2023-09-19T12:17:37;24.20;99.90
46458;DHT22;32155;54.076;12.092;2023-09-19T12:23:30;22.80;99.90
46458;DHT22;32155;54.076;12.092;2023-09-19T12:38:08;23.10;99.90
46458;DHT22;32155;54.076;12.092;2023-09-19T12:40:51;22.40;99.90
46458;DHT22;32155;54.076;12.092;2023-09-19T12:49:20;22.40;99.90
46458;DHT22;32155;54.076;12.092;2023-09-19T12:55:19;21.90;99.90
46458;DHT22;32155;54.076;12.092;2023-09-19T12:58:18;21.60;99.90
46458;DHT22;32155;54.076;12.092;2023-09-19T13:07:08;21.20;99.90
46458;DHT22;32155;54.076;12.092;2023-09-19T13:10:20;21.20;99.90
46458;DHT22;32155;54.076;12.092;2023-09-19T13:38:49;21.30;99.90
46458;DHT22;32155;54.076;12.092;2023-09-19T13:41:36;21.10;99.90
46458;DHT22;32155;54.076;12.092;2023-09-19T13:47:56;21.50;99.90
46458;DHT22;32155;54.076;12.092;2023-09-19T13:50:35;21.20;99.90
46458;DHT22;32155;54.076;12.092;2023-09-19T13:53:24;20.90;99.90
46458;DHT22;32155;54.076;12.092;2023-09-19T13:58:56;20.90;99.90
46458;DHT22;32155;54.076;12.092;2023-09-19T14:02:09;21.30;99.90
46458;DHT22;32155;54.076;12.092;2023-09-19T14:17:53;20.80;99.90
46458;DHT22;32155;54.076;12.092;2023-09-19T14:55:38;21.00;99.90
46458;DHT22;32155;54.076;12.092;2023-09-19T14:58:09;21.10;99.90
46458;DHT22;32155;54.076;12.092;2023-09-19T15:03:58;21.30;99.90
46458;DHT22;32155;54.076;12.092;2023-09-19T15:19:21;20.40;99.90
46458;DHT22;32155;54.076;12.092;2023-09-19T15:25:39;20.10;99.90
46458;DHT22;32155;54.076;12.092;2023-09-19T15:34:49;19.50;99.90
46458;DHT22;32155;54.076;12.092;2023-09-19T15:37:38;19.40;99.90
46458;DHT22;32155;54.076;12.092;2023-09-19T15:43:29;19.30;99.90
46458;DHT22;32155;54.076;12.092;2023-09-19T15:46:19;19.30;99.90
46458;DHT22;32155;54.076;12.092;2023-09-19T15:55:15;19.20;99.90
46458;DHT22;32155;54.076;12.092;2023-09-19T16:08:11;19.00;99.90
46458;DHT22;32155;54.076;12.092;2023-09-19T16:16:17;18.90;99.90
46458;DHT22;32155;54.076;12.092;2023-09-19T16:18:56;18.90;99.90
46458;DHT22;32155;54.076;12.092;2023-09-19T16:21:33;18.90;99.90
46458;DHT22;32155;54.076;12.092;2023-09-19T16:24:10;18.80;99.90
46458;DHT22;32155;54.076;12.092;2023-09-19T16:30:02;18.60;99.90
46458;DHT22;32155;54.076;12.092;2023-09-19T16:32:28;18.50;99.90
46458;DHT22;32155;54.076;12.092;2023-09-19T16:41:52;18.40;99.90
46458;DHT22;32155;54.076;12.092;2023-09-19T16:51:01;18.30;99.90
46458;DHT22;32155;54.076;12.092;2023-09-19T16:53:39;18.40;99.90
46458;DHT22;32155;54.076;12.092;2023-09-19T17:08:18;18.30;99.90
46458;DHT22;32155;54.076;12.092;2023-09-19T17:14:13;18.30;99.90
46458;DHT22;32155;54.076;12.092;2023-09-19T17:16:50;18.30;99.90
46458;DHT22;32155;54.076;12.092;2023-09-19T17:22:27;18.20;99.90
46458;DHT22;32155;54.076;12.092;2023-09-19T17:24:59;18.20;99.90
46458;DHT22;32155;54.076;12.092;2023-09-19T17:30:24;18.20;99.90
46458;DHT22;32155;54.076;12.092;2023-09-19T17:36:11;18.20;99.90
46458;DHT22;32155;54.076;12.092;2023-09-19T17:39:00;18.20;99.90
46458;DHT22;32155;54.076;12.092;2023-09-19T17:41:34;18.20;99.90
46458;DHT22;32155;54.076;12.092;2023-09-19T17:46:41;18.10;99.90
46458;DHT22;32155;54.076;12.092;2023-09-19T17:49:48;18.00;99.90
46458;DHT22;32155;54.076;12.092;2023-09-19T17:52:38;18.00;99.90
46458;DHT22;32155;54.076;12.092;2023-09-19T17:55:43;17.90;99.90
46458;DHT22;32155;54.076;12.092;2023-09-19T18:01:23;18.00;99.90
46458;DHT22;32155;54.076;12.092;2023-09-19T18:06:48;18.00;99.90
46458;DHT22;32155;54.076;12.092;2023-09-19T18:09:50;18.00;99.90
46458;DHT22;32155;54.076;12.092;2023-09-19T18:15:18;18.10;99.90
46458;DHT22;32155;54.076;12.092;2023-09-19T18:18:04;18.10;99.90
46458;DHT22;32155;54.076;12.092;2023-09-19T18:20:43;18.10;99.90
46458;DHT22;32155;54.076;12.092;2023-09-19T18:23:38;18.10;99.90
46458;DHT22;32155;54.076;12.092;2023-09-19T18:29:22;18.10;99.90
46458;DHT22;32155;54.076;12.092;2023-09-19T18:35:44;18.10;99.90
46458;DHT22;32155;54.076;12.092;2023-09-19T18:38:15;18.00;99.90
46458;DHT22;32155;54.076;12.092;2023-09-19T18:40:55;18.00;99.90
46458;DHT22;32155;54.076;12.092;2023-09-19T18:43:20;17.90;99.90
46458;DHT22;32155;54.076;12.092;2023-09-19T18:46:07;17.90;99.90
46458;DHT22;32155;54.076;12.092;2023-09-19T18:48:43;18.00;99.90
46458;DHT22;32155;54.076;12.092;2023-09-19T18:51:23;18.00;99.90
46458;DHT22;32155;54.076;12.092;2023-09-19T18:53:56;18.00;99.90
46458;DHT22;32155;54.076;12.092;2023-09-19T18:59:45;18.00;99.90
46458;DHT22;32155;54.076;12.092;2023-09-19T19:03:18;18.00;99.90
46458;DHT22;32155;54.076;12.092;2023-09-19T19:08:06;18.00;99.90
46458;DHT22;32155;54.076;12.092;2023-09-19T19:10:39;18.00;99.90
46458;DHT22;32155;54.076;12.092;2023-09-19T19:13:18;18.00;99.90
46458;DHT22;32155;54.076;12.092;2023-09-19T19:15:56;17.90;99.90
46458;DHT22;32155;54.076;12.092;2023-09-19T19:21:50;17.90;99.90
46458;DHT22;32155;54.076;12.092;2023-09-19T19:24:51;18.00;99.90
46458;DHT22;32155;54.076;12.092;2023-09-19T19:27:48;17.90;99.90
46458;DHT22;32155;54.076;12.092;2023-09-19T19:30:31;18.00;99.90
46458;DHT22;32155;54.076;12.092;2023-09-19T19:33:15;18.00;99.90
46458;DHT22;32155;54.076;12.092;2023-09-19T19:44:51;18.00;99.90
46458;DHT22;32155;54.076;12.092;2023-09-19T19:54:00;18.00;99.90
46458;DHT22;32155;54.076;12.092;2023-09-19T19:57:01;18.00;99.90
46458;DHT22;32155;54.076;12.092;2023-09-19T19:59:32;17.90;99.90
46458;DHT22;32155;54.076;12.092;2023-09-19T20:02:01;17.90;99.90
46458;DHT22;32155;54.076;12.092;2023-09-19T20:04:32;17.90;99.90
46458;DHT22;32155;54.076;12.092;2023-09-19T20:07:01;17.90;99.90
46458;DHT22;32155;54.076;12.092;2023-09-19T20:09:31;18.00;99.90
46458;DHT22;32155;54.076;12.092;2023-09-19T20:11:57;18.00;99.90
46458;DHT22;32155;54.076;12.092;2023-09-19T20:17:39;18.00;99.90
46458;DHT22;32155;54.076;12.092;2023-09-19T20:20:05;18.00;99.90
46458;DHT22;32155;54.076;12.092;2023-09-19T20:22:49;18.00;99.90
46458;DHT22;32155;54.076;12.092;2023-09-19T20:25:15;18.10;99.90
46458;DHT22;32155;54.076;12.092;2023-09-19T20:27:43;18.00;99.90
46458;DHT22;32155;54.076;12.092;2023-09-19T20:30:09;18.00;99.90
46458;DHT22;32155;54.076;12.092;2023-09-19T20:32:37;18.10;99.90
46458;DHT22;32155;54.076;12.092;2023-09-19T20:35:04;18.10;99.90
46458;DHT22;32155;54.076;12.092;2023-09-19T20:37:30;18.10;99.90
46458;DHT22;32155;54.076;12.092;2023-09-19T20:39:56;18.10;99.90
46458;DHT22;32155;54.076;12.092;2023-09-19T20:42:21;18.20;99.90
46458;DHT22;32155;54.076;12.092;2023-09-19T20:44:48;18.20;99.90
46458;DHT22;32155;54.076;12.092;2023-09-19T20:47:14;18.20;99.90
46458;DHT22;32155;54.076;12.092;2023-09-19T20:49:40;18.20;99.90
46458;DHT22;32155;54.076;12.092;2023-09-19T20:52:05;18.20;99.90
46458;DHT22;32155;54.076;12.092;2023-09-19T20:54:31;18.20;99.90
46458;DHT22;32155;54.076;12.092;2023-09-19T20:56:56;18.30;99.90
46458;DHT22;32155;54.076;12.092;2023-09-19T20:59:25;18.30;99.90
46458;DHT22;32155;54.076;12.092;2023-09-19T21:01:51;18.30;99.90
46458;DHT22;32155;54.076;12.092;2023-09-19T21:04:20;18.30;99.90
46458;DHT22;32155;54.076;12.092;2023-09-19T21:06:45;18.30;99.90
46458;DHT22;32155;54.076;12.092;2023-09-19T21:09:11;18.30;99.90
46458;DHT22;32155;54.076;12.092;2023-09-19T21:11:37;18.30;99.90
46458;DHT22;32155;54.076;12.092;2023-09-19T21:14:02;18.40;99.90
46458;DHT22;32155;54.076;12.092;2023-09-19T21:16:29;18.40;99.90
46458;DHT22;32155;54.076;12.092;2023-09-19T21:18:55;18.40;99.90
46458;DHT22;32155;54.076;12.092;2023-09-19T21:21:20;18.40;99.90
46458;DHT22;32155;54.076;12.092;2023-09-19T21:23:46;18.40;99.90
46458;DHT22;32155;54.076;12.092;2023-09-19T21:26:12;18.50;99.90
46458;DHT22;32155;54.076;12.092;2023-09-19T21:28:39;18.40;99.90
46458;DHT22;32155;54.076;12.092;2023-09-19T21:31:05;18.40;99.90
46458;DHT22;32155;54.076;12.092;2023-09-19T21:33:40;18.40;99.90
46458;DHT22;32155;54.076;12.092;2023-09-19T21:36:10;18.40;99.90
46458;DHT22;32155;54.076;12.092;2023-09-19T21:38:39;18.40;99.90
46458;DHT22;32155;54.076;12.092;2023-09-19T21:41:07;18.40;99.90
46458;DHT22;32155;54.076;12.092;2023-09-19T21:43:34;18.40;99.90
46458;DHT22;32155;54.076;12.092;2023-09-19T21:46:01;18.40;99.90
46458;DHT22;32155;54.076;12.092;2023-09-19T21:48:29;18.40;99.90
46458;DHT22;32155;54.076;12.092;2023-09-19T21:50:55;18.40;99.90
46458;DHT22;32155;54.076;12.092;2023-09-19T21:53:21;18.40;99.90
46458;DHT22;32155;54.076;12.092;2023-09-19T21:55:47;18.40;99.90
46458;DHT22;32155;54.076;12.092;2023-09-19T21:58:14;18.50;99.90
46458;DHT22;32155;54.076;12.092;2023-09-19T22:00:43;18.40;99.90
46458;DHT22;32155;54.076;12.092;2023-09-19T22:03:12;18.40;99.90
46458;DHT22;32155;54.076;12.092;2023-09-19T22:05:40;18.40;99.90
46458;DHT22;32155;54.076;12.092;2023-09-19T22:08:06;18.40;99.90
46458;DHT22;32155;54.076;12.092;2023-09-19T22:10:46;18.30;99.90
46458;DHT22;32155;54.076;12.092;2023-09-19T22:13:12;18.30;99.90
46458;DHT22;32155;54.076;12.092;2023-09-19T22:15:40;18.40;99.90
46458;DHT22;32155;54.076;12.092;2023-09-19T22:18:11;18.40;99.90
46458;DHT22;32155;54.076;12.092;2023-09-19T22:20:44;18.40;99.90
46458;DHT22;32155;54.076;12.092;2023-09-19T22:23:18;18.30;99.90
46458;DHT22;32155;54.076;12.092;2023-09-19T22:25:44;18.40;99.90
46458;DHT22;32155;54.076;12.092;2023-09-19T22:28:12;18.40;99.90
46458;DHT22;32155;54.076;12.092;2023-09-19T22:30:41;18.40;99.90
46458;DHT22;32155;54.076;12.092;2023-09-19T22:33:16;18.40;99.90
46458;DHT22;32155;54.076;12.092;2023-09-19T22:35:45;18.40;99.90
46458;DHT22;32155;54.076;12.092;2023-09-19T22:38:16;18.40;99.90
46458;DHT22;32155;54.076;12.092;2023-09-19T22:40:46;18.40;99.90
46458;DHT22;32155;54.076;12.092;2023-09-19T22:43:18;18.40;99.90
46458;DHT22;32155;54.076;12.092;2023-09-19T22:45:46;18.40;99.90
46458;DHT22;32155;54.076;12.092;2023-09-19T22:48:12;18.50;99.90
46458;DHT22;32155;54.076;12.092;2023-09-19T22:50:40;18.50;99.90
46458;DHT22;32155;54.076;12.092;2023-09-19T22:53:13;18.50;99.90
46458;DHT22;32155;54.076;12.092;2023-09-19T22:55:45;18.50;99.90
46458;DHT22;32155;54.076;12.092;2023-09-19T22:58:12;18.50;99.90
46458;DHT22;32155;54.076;12.092;2023-09-19T23:00:37;18.50;99.90
46458;DHT22;32155;54.076;12.092;2023-09-19T23:03:04;18.50;99.90
46458;DHT22;32155;54.076;12.092;2023-09-19T23:05:37;18.50;99.90
46458;DHT22;32155;54.076;12.092;2023-09-19T23:08:11;18.50;99.90
46458;DHT22;32155;54.076;12.092;2023-09-19T23:13:09;18.50;99.90
46458;DHT22;32155;54.076;12.092;2023-09-19T23:15:38;18.50;99.90
46458;DHT22;32155;54.076;12.092;2023-09-19T23:18:04;18.50;99.90
46458;DHT22;32155;54.076;12.092;2023-09-19T23:20:36;18.50;99.90
46458;DHT22;32155;54.076;12.092;2023-09-19T23:23:07;18.50;99.90
46458;DHT22;32155;54.076;12.092;2023-09-19T23:25:35;18.50;99.90
46458;DHT22;32155;54.076;12.092;2023-09-19T23:28:11;18.50;99.90
46458;DHT22;32155;54.076;12.092;2023-09-19T23:30:38;18.50;99.90
46458;DHT22;32155;54.076;12.092;2023-09-19T23:33:05;18.40;99.90
46458;DHT22;32155;54.076;12.092;2023-09-19T23:35:32;18.40;99.90
46458;DHT22;32155;54.076;12.092;2023-09-19T23:37:58;18.40;99.90
46458;DHT22;32155;54.076;12.092;2023-09-19T23:40:24;18.30;99.90
46458;DHT22;32155;54.076;12.092;2023-09-19T23:42:52;18.30;99.90
46458;DHT22;32155;54.076;12.092;2023-09-19T23:45:18;18.30;99.90
46458;DHT22;32155;54.076;12.092;2023-09-19T23:47:50;18.30;99.90
46458;DHT22;32155;54.076;12.092;2023-09-19T23:50:16;18.30;99.90
46458;DHT22;32155;54.076;12.092;2023-09-19T23:52:42;18.40;99.90
46458;DHT22;32155;54.076;12.092;2023-09-19T23:55:08;18.30;99.90
46458;DHT22;32155;54.076;12.092;2023-09-19T23:57:36;18.30;99.90
